Time;durP1;ratioP1;P1;durP2;ratioP2;P2;SDS_P1;SDS_P2;PMS_P1;PMS_P2;Temp;Humidity;BMP_temperature;BMP_pressure;BME280_temperature;BME280_humidity;BME280_pressure;Samples;Min_cycle;Max_cycle;Signal;HPM_P1;HPM_P2
2024/04/13 00:00:46;;;;;;;6.97;2.00;;;12.40;71.90;;;;;;5436970;26;20490;-53
2024/04/13 00:03:14;;;;;;;5.43;1.98;;;12.30;71.70;;;;;;5444782;26;20027;-50
2024/04/13 00:05:40;;;;;;;7.88;2.00;;;12.30;72.20;;;;;;5449501;26;20502;-50
2024/04/13 00:08:07;;;;;;;8.00;2.10;;;12.30;73.10;;;;;;5449868;26;20027;-49
2024/04/13 00:10:35;;;;;;;6.93;2.00;;;12.60;72.20;;;;;;5448788;26;20034;-53
2024/04/13 00:13:02;;;;;;;5.30;1.80;;;12.30;72.90;;;;;;5448927;26;20039;-50
2024/04/13 00:15:30;;;;;;;5.80;1.90;;;12.30;73.70;;;;;;5450022;26;20022;-51
2024/04/13 00:17:58;;;;;;;7.45;1.77;;;12.70;72.00;;;;;;5448806;26;20039;-50
2024/04/13 00:20:25;;;;;;;7.35;1.92;;;12.20;72.10;;;;;;5448415;26;20373;-52
2024/04/13 00:22:53;;;;;;;6.40;2.13;;;12.40;71.70;;;;;;5449973;26;20023;-51
2024/04/13 00:25:20;;;;;;;4.78;1.92;;;12.20;72.80;;;;;;5448149;26;20026;-52
2024/04/13 00:27:47;;;;;;;5.82;1.80;;;12.20;73.20;;;;;;5446846;26;20031;-49
2024/04/13 00:30:14;;;;;;;5.10;1.70;;;12.20;73.40;;;;;;5445130;26;20031;-48
2024/04/13 00:32:40;;;;;;;8.25;2.15;;;12.30;73.80;;;;;;5449631;26;20023;-50
2024/04/13 00:35:07;;;;;;;7.32;1.90;;;12.70;73.10;;;;;;5448716;26;20042;-52
2024/04/13 00:37:34;;;;;;;8.77;2.42;;;12.20;73.10;;;;;;5439536;26;20545;-52
2024/04/13 00:40:02;;;;;;;6.47;1.77;;;12.20;73.40;;;;;;5448443;26;20026;-52
2024/04/13 00:42:29;;;;;;;7.03;1.80;;;12.20;73.30;;;;;;5448661;26;20023;-50
2024/04/13 00:45:03;;;;;;;6.75;1.50;;;12.20;74.40;;;;;;5449316;26;20023;-50
2024/04/13 00:47:34;;;;;;;5.50;1.90;;;12.80;75.30;;;;;;5449246;26;20030;-55
2024/04/13 00:50:10;;;;;;;9.98;1.85;;;12.20;74.30;;;;;;5432522;26;20030;-52
2024/04/13 00:52:42;;;;;;;7.38;1.77;;;12.20;74.40;;;;;;5448715;26;20026;-51
2024/04/13 00:55:10;;;;;;;4.90;1.40;;;12.20;76.30;;;;;;5447889;26;20356;-49
2024/04/13 00:57:37;;;;;;;7.45;1.80;;;12.20;74.70;;;;;;5448133;26;20027;-50
2024/04/13 01:00:05;;;;;;;6.72;1.77;;;12.20;74.90;;;;;;5439889;26;20027;-49
2024/04/13 01:02:33;;;;;;;5.50;1.80;;;12.20;76.50;;;;;;5449046;26;20090;-53
2024/04/13 01:05:01;;;;;;;5.20;1.58;;;12.10;75.50;;;;;;5448838;26;20030;-53
2024/04/13 01:07:27;;;;;;;7.20;1.80;;;12.20;75.90;;;;;;5448369;26;20030;-50
2024/04/13 01:09:58;;;;;;;4.35;1.52;;;12.10;76.30;;;;;;5447542;26;20030;-54
2024/04/13 01:12:26;;;;;;;8.07;1.83;;;12.10;76.20;;;;;;5448721;26;20034;-48
2024/04/13 01:14:53;;;;;;;5.95;1.75;;;12.10;76.50;;;;;;5448289;26;20038;-50
2024/04/13 01:17:20;;;;;;;8.15;1.98;;;12.00;77.40;;;;;;5449090;26;20039;-50
2024/04/13 01:19:46;;;;;;;6.35;1.70;;;11.90;77.20;;;;;;5447876;26;20023;-49
2024/04/13 01:22:14;;;;;;;8.77;1.85;;;12.00;78.10;;;;;;5446468;26;20026;-53
2024/04/13 01:24:42;;;;;;;5.97;1.55;;;11.90;77.90;;;;;;5447771;26;20074;-52
2024/04/13 01:27:09;;;;;;;9.93;2.10;;;11.80;78.20;;;;;;5445981;26;20039;-49
2024/04/13 01:29:36;;;;;;;9.55;1.58;;;11.90;79.00;;;;;;5428293;26;20034;-49
2024/04/13 01:32:04;;;;;;;9.15;2.00;;;11.80;78.80;;;;;;5433298;26;20030;-53
2024/04/13 01:34:32;;;;;;;7.75;2.08;;;11.80;79.20;;;;;;5447698;26;20022;-52
2024/04/13 01:36:58;;;;;;;11.20;2.17;;;11.70;79.70;;;;;;5447925;26;20027;-51
2024/04/13 01:39:25;;;;;;;6.65;1.80;;;11.70;79.70;;;;;;5445719;26;20013;-52
2024/04/13 01:41:53;;;;;;;8.65;2.05;;;11.70;79.50;;;;;;5447834;26;20039;-52
2024/04/13 01:44:21;;;;;;;9.77;2.03;;;11.70;80.30;;;;;;5448166;26;20024;-50
2024/04/13 01:46:48;;;;;;;8.63;1.90;;;11.60;80.90;;;;;;5447522;26;20027;-47
2024/04/13 01:49:14;;;;;;;11.63;2.70;;;11.60;80.80;;;;;;5445790;26;20026;-50
2024/04/13 01:51:41;;;;;;;8.80;1.92;;;11.70;81.70;;;;;;5448151;26;20030;-49
2024/04/13 01:54:09;;;;;;;9.68;2.10;;;11.60;81.00;;;;;;5447396;26;20035;-54
2024/04/13 01:56:36;;;;;;;8.32;1.90;;;11.60;81.10;;;;;;5445769;26;20852;-48
2024/04/13 01:59:03;;;;;;;11.13;1.95;;;11.80;81.60;;;;;;5446909;26;20026;-48
2024/04/13 02:01:31;;;;;;;9.38;2.08;;;11.60;81.90;;;;;;5447829;26;20046;-54
2024/04/13 02:03:57;;;;;;;10.77;2.13;;;11.50;82.00;;;;;;5445646;26;20320;-49
2024/04/13 02:06:25;;;;;;;10.48;2.10;;;11.60;82.30;;;;;;5446220;26;20035;-47
2024/04/13 02:08:53;;;;;;;6.45;1.95;;;11.60;82.40;;;;;;5444524;26;20046;-46
2024/04/13 02:11:20;;;;;;;7.68;2.10;;;11.60;82.60;;;;;;5445272;26;20036;-47
2024/04/13 02:13:46;;;;;;;10.80;2.22;;;11.60;83.10;;;;;;5446975;26;20027;-49
2024/04/13 02:16:14;;;;;;;7.80;2.00;;;11.60;83.30;;;;;;5445327;26;20027;-49
2024/04/13 02:18:41;;;;;;;9.63;2.30;;;11.50;83.30;;;;;;5445353;26;20312;-47
2024/04/13 02:21:07;;;;;;;12.35;2.45;;;11.50;82.90;;;;;;5446191;26;20027;-51
2024/04/13 02:23:35;;;;;;;13.65;2.20;;;11.50;83.10;;;;;;5446561;26;20039;-52
2024/04/13 02:26:02;;;;;;;9.05;2.20;;;11.50;83.40;;;;;;5445262;26;20361;-51
2024/04/13 02:28:29;;;;;;;11.57;2.20;;;11.50;83.20;;;;;;5446057;26;20412;-54
2024/04/13 02:30:56;;;;;;;5.50;1.90;;;11.40;83.40;;;;;;5438590;26;20272;-51
2024/04/13 02:33:23;;;;;;;9.32;2.10;;;11.40;83.90;;;;;;5446166;26;20039;-47
2024/04/13 02:36:03;;;;;;;9.38;2.17;;;11.40;83.50;;;;;;5445735;26;20035;-52
2024/04/13 02:38:32;;;;;;;7.32;2.00;;;11.30;82.80;;;;;;5445614;26;20009;-49
2024/04/13 02:41:00;;;;;;;6.82;2.15;;;11.30;83.30;;;;;;5445101;26;20027;-51
2024/04/13 02:43:31;;;;;;;9.77;2.20;;;11.30;83.40;;;;;;5446862;26;20043;-49
2024/04/13 02:46:08;;;;;;;12.95;2.30;;;11.30;84.30;;;;;;5449957;26;20038;-51
2024/04/13 02:48:37;;;;;;;10.00;2.45;;;11.20;83.20;;;;;;5438770;26;20058;-53
2024/04/13 02:51:05;;;;;;;9.55;1.92;;;11.20;82.70;;;;;;5449162;26;20028;-52
2024/04/13 02:53:36;;;;;;;8.57;2.20;;;11.20;82.50;;;;;;5449062;26;20039;-50
2024/04/13 02:56:04;;;;;;;8.70;2.22;;;11.20;82.50;;;;;;5447930;26;19998;-49
2024/04/13 02:58:32;;;;;;;11.77;1.92;;;11.20;83.70;;;;;;5448436;26;20013;-51
2024/04/13 03:01:00;;;;;;;9.55;2.30;;;11.20;83.40;;;;;;5449275;26;20026;-51
2024/04/13 03:03:28;;;;;;;8.20;2.10;;;11.20;83.60;;;;;;5449501;26;20027;-52
2024/04/13 03:06:11;;;;;;;14.95;2.55;;;11.10;84.00;;;;;;5448323;26;20039;-51
2024/04/13 03:08:39;;;;;;;11.45;2.50;;;11.10;84.60;;;;;;5449493;26;20035;-48
2024/04/13 03:11:11;;;;;;;8.75;2.22;;;11.10;84.30;;;;;;5447736;26;20027;-54
2024/04/13 03:13:45;;;;;;;10.15;2.40;;;11.00;83.80;;;;;;5447577;26;20038;-51
2024/04/13 03:16:12;;;;;;;10.23;2.10;;;10.90;84.20;;;;;;5449156;26;20030;-52
2024/04/13 03:18:41;;;;;;;8.40;2.03;;;10.90;84.60;;;;;;5449811;26;20009;-52
2024/04/13 03:21:08;;;;;;;10.18;2.25;;;10.90;85.20;;;;;;5447678;26;20023;-51
2024/04/13 03:23:36;;;;;;;17.02;2.70;;;10.90;85.00;;;;;;5478798;26;20363;-53
2024/04/13 03:26:03;;;;;;;10.30;2.40;;;10.80;85.70;;;;;;5447716;26;20038;-51
2024/04/13 03:28:34;;;;;;;9.52;2.20;;;9.80;85.40;;;;;;5449409;26;20038;-53
2024/04/13 03:31:01;;;;;;;10.38;2.65;;;10.80;85.90;;;;;;5436044;26;20516;-50
2024/04/13 03:33:28;;;;;;;11.88;2.20;;;10.70;85.90;;;;;;5449235;26;20467;-54
2024/04/13 03:36:04;;;;;;;7.18;1.98;;;10.80;86.50;;;;;;5441929;26;20076;-48
2024/04/13 03:38:30;;;;;;;;;;;10.80;85.90;;;;;;5445336;26;20027;-52
2024/04/13 03:41:02;;;;;;;12.43;2.10;;;10.70;85.50;;;;;;5448992;26;19975;-52
2024/04/13 03:43:29;;;;;;;9.00;2.30;;;10.70;86.60;;;;;;5449856;26;20478;-50
2024/04/13 03:45:57;;;;;;;10.05;2.42;;;10.70;86.30;;;;;;5450028;26;20031;-51
2024/04/13 03:48:23;;;;;;;9.38;2.40;;;10.70;86.00;;;;;;5438513;26;20027;-50
2024/04/13 03:50:51;;;;;;;7.40;2.20;;;10.70;86.70;;;;;;5449697;26;20389;-52
2024/04/13 03:53:18;;;;;;;11.30;2.40;;;10.70;87.10;;;;;;5450061;26;20471;-50
2024/04/13 03:55:45;;;;;;;13.15;2.55;;;10.70;86.60;;;;;;5422844;26;20035;-50
2024/04/13 03:58:12;;;;;;;11.15;2.28;;;10.60;86.90;;;;;;5449930;26;20027;-47
2024/04/13 04:00:41;;;;;;;9.95;2.15;;;10.90;86.50;;;;;;5432820;26;20009;-51
2024/04/13 04:03:08;;;;;;;9.93;1.92;;;10.60;86.70;;;;;;5449655;26;20032;-48
2024/04/13 04:05:36;;;;;;;14.93;2.10;;;10.60;87.10;;;;;;5449334;26;20059;-49
2024/04/13 04:08:03;;;;;;;12.45;2.55;;;10.60;87.00;;;;;;5449660;26;20351;-50
2024/04/13 04:10:30;;;;;;;10.52;2.45;;;10.60;87.00;;;;;;5440988;26;20043;-52
2024/04/13 04:13:01;;;;;;;15.07;2.47;;;10.60;88.20;;;;;;5429889;26;20363;-56
2024/04/13 04:15:28;;;;;;;9.70;2.30;;;10.50;86.90;;;;;;5449470;26;20034;-49
2024/04/13 04:17:55;;;;;;;9.20;2.45;;;11.80;90.20;;;;;;5448817;26;20035;-48
2024/04/13 04:20:21;;;;;;;8.52;2.15;;;10.50;87.70;;;;;;5449450;26;20026;-50
2024/04/13 04:22:48;;;;;;;14.68;2.38;;;10.40;87.30;;;;;;5449393;26;20118;-54
2024/04/13 04:25:15;;;;;;;13.75;2.47;;;10.60;88.80;;;;;;5447952;26;20025;-52
2024/04/13 04:27:42;;;;;;;12.20;2.28;;;10.40;88.90;;;;;;5449065;26;20509;-52
2024/04/13 04:30:09;;;;;;;12.95;2.42;;;10.40;89.10;;;;;;5448380;26;20022;-49
2024/04/13 04:32:36;;;;;;;11.45;2.65;;;10.40;89.20;;;;;;5448729;26;20365;-48
2024/04/13 04:35:03;;;;;;;11.68;2.35;;;10.40;89.00;;;;;;5448261;26;20026;-49
2024/04/13 04:37:29;;;;;;;9.90;2.45;;;10.30;88.80;;;;;;5448318;26;20038;-57
2024/04/13 04:39:56;;;;;;;15.70;2.90;;;10.30;89.10;;;;;;5447203;26;19999;-52
2024/04/13 04:42:24;;;;;;;10.13;2.45;;;10.30;89.20;;;;;;5447500;26;20039;-55
2024/04/13 04:44:51;;;;;;;9.65;2.33;;;10.50;90.40;;;;;;5446895;26;20038;-53
2024/04/13 04:47:18;;;;;;;13.05;2.60;;;10.30;90.00;;;;;;5448530;26;20039;-59
2024/04/13 04:49:46;;;;;;;15.05;2.60;;;10.30;89.60;;;;;;5446593;26;20023;-58
2024/04/13 04:52:13;;;;;;;8.70;2.85;;;10.30;89.80;;;;;;5447163;26;20042;-58
2024/04/13 04:54:41;;;;;;;13.60;2.78;;;10.30;89.70;;;;;;5447768;26;20026;-58
2024/04/13 04:57:08;;;;;;;11.35;2.50;;;10.30;89.90;;;;;;5416255;26;20379;-59
2024/04/13 04:59:35;;;;;;;8.90;2.40;;;10.30;90.20;;;;;;5448871;26;20026;-59
2024/04/13 05:02:03;;;;;;;13.73;2.70;;;10.30;90.30;;;;;;5446994;26;20031;-58
2024/04/13 05:04:30;;;;;;;13.32;2.58;;;10.30;90.00;;;;;;5448985;26;20035;-57
2024/04/13 05:07:00;;;;;;;7.97;2.45;;;10.30;90.00;;;;;;5448103;26;20034;-59
2024/04/13 05:09:27;;;;;;;14.13;2.58;;;10.30;89.90;;;;;;5447534;26;20026;-59
2024/04/13 05:11:55;;;;;;;10.52;2.40;;;10.30;90.00;;;;;;5446473;26;20030;-59
2024/04/13 05:14:21;;;;;;;12.15;2.50;;;10.30;90.30;;;;;;5448609;26;20022;-58
2024/04/13 05:16:48;;;;;;;12.00;2.88;;;10.30;90.40;;;;;;5448962;26;20027;-59
2024/04/13 05:19:15;;;;;;;11.75;2.55;;;10.40;90.50;;;;;;5448299;26;20039;-59
2024/04/13 05:21:42;;;;;;;12.88;2.65;;;10.50;91.60;;;;;;5448807;26;20016;-59
2024/04/13 05:24:09;;;;;;;14.18;2.80;;;10.40;90.60;;;;;;5445326;26;20058;-59
2024/04/13 05:26:36;;;;;;;12.77;2.70;;;10.50;90.70;;;;;;5447986;26;20026;-59
2024/04/13 05:29:03;;;;;;;15.27;2.38;;;10.50;90.50;;;;;;5446570;26;20031;-58
2024/04/13 05:31:30;;;;;;;18.80;2.63;;;11.00;90.60;;;;;;5446303;26;20030;-59
2024/04/13 05:33:56;;;;;;;17.20;2.80;;;11.40;90.80;;;;;;5446333;26;20031;-58
2024/04/13 05:36:23;;;;;;;13.50;2.30;;;11.70;90.70;;;;;;5446035;26;20031;-58
2024/04/13 05:38:50;;;;;;;13.57;2.92;;;10.70;90.50;;;;;;5448409;26;20494;-59
2024/04/13 05:41:17;;;;;;;15.85;2.40;;;10.70;90.70;;;;;;5447214;26;20332;-59
2024/04/13 05:43:44;;;;;;;13.15;2.55;;;10.90;90.70;;;;;;5448152;26;20035;-59
2024/04/13 05:46:10;;;;;;;13.35;2.55;;;10.80;90.70;;;;;;5448479;26;20031;-59
2024/04/13 05:48:37;;;;;;;13.95;2.58;;;10.90;90.50;;;;;;5436933;26;20030;-58
2024/04/13 05:51:04;;;;;;;12.88;2.80;;;11.00;90.60;;;;;;5448348;26;20023;-59
2024/04/13 05:53:31;;;;;;;11.95;2.45;;;11.10;90.80;;;;;;5447877;26;20043;-59
2024/04/13 05:56:04;;;;;;;10.80;2.30;;;11.10;90.80;;;;;;5446126;26;20055;-59
2024/04/13 05:58:31;;;;;;;15.15;2.88;;;11.20;91.10;;;;;;5447780;26;20034;-59
2024/04/13 06:00:58;;;;;;;10.32;2.75;;;11.30;90.80;;;;;;5448157;26;20032;-59
2024/04/13 06:03:25;;;;;;;13.75;2.67;;;11.40;90.80;;;;;;5448122;26;20043;-59
2024/04/13 06:05:52;;;;;;;11.02;2.50;;;11.50;91.10;;;;;;5447537;26;20035;-60
2024/04/13 06:08:18;;;;;;;15.70;2.65;;;11.70;91.10;;;;;;5447660;26;20031;-61
2024/04/13 06:10:45;;;;;;;13.02;2.67;;;12.00;91.30;;;;;;5446571;26;20027;-62
2024/04/13 06:13:16;;;;;;;10.55;2.58;;;12.20;90.30;;;;;;5447320;26;20046;-61
2024/04/13 06:15:43;;;;;;;10.60;2.40;;;12.40;89.80;;;;;;5447986;26;20478;-61
2024/04/13 06:18:11;;;;;;;12.35;2.63;;;12.60;89.70;;;;;;5446596;26;20082;-62
2024/04/13 06:20:38;;;;;;;9.23;2.35;;;13.10;90.10;;;;;;5450859;26;20034;-61
2024/04/13 06:23:05;;;;;;;9.88;2.53;;;12.90;86.30;;;;;;5450903;26;20043;-61
2024/04/13 06:25:32;;;;;;;15.68;2.67;;;12.90;83.80;;;;;;5446375;26;20026;-61
2024/04/13 06:27:58;;;;;;;13.02;2.72;;;13.10;82.40;;;;;;5448450;26;20022;-62
2024/04/13 06:30:26;;;;;;;11.95;2.65;;;12.90;83.40;;;;;;5451385;26;20031;-62
2024/04/13 06:32:53;;;;;;;11.60;2.47;;;12.90;84.60;;;;;;5450802;26;20026;-61
2024/04/13 06:35:20;;;;;;;14.48;2.47;;;13.10;85.50;;;;;;5450400;26;20042;-62
2024/04/13 06:37:47;;;;;;;10.88;2.85;;;13.30;85.80;;;;;;5450764;26;20026;-62
2024/04/13 06:40:14;;;;;;;13.77;2.67;;;13.60;87.00;;;;;;5450068;26;20382;-61
2024/04/13 06:42:41;;;;;;;12.00;2.70;;;14.00;84.50;;;;;;5450677;26;20152;-62
2024/04/13 06:45:08;;;;;;;11.75;2.67;;;14.60;82.20;;;;;;5450879;26;20038;-61
2024/04/13 06:47:34;;;;;;;10.57;2.50;;;14.60;83.10;;;;;;5448111;26;20377;-62
2024/04/13 06:50:02;;;;;;;16.77;2.92;;;14.90;86.20;;;;;;5440567;26;20027;-62
2024/04/13 06:52:29;;;;;;;13.68;2.97;;;15.20;87.70;;;;;;5450766;26;20027;-62
2024/04/13 06:54:56;;;;;;;11.05;2.75;;;15.90;83.20;;;;;;5450051;26;20035;-63
2024/04/13 06:57:23;;;;;;;10.73;2.58;;;16.00;81.60;;;;;;5448114;26;20023;-61
2024/04/13 06:59:50;;;;;;;10.57;2.80;;;16.50;82.60;;;;;;5439797;26;20027;-62
2024/04/13 07:02:16;;;;;;;9.57;2.55;;;17.10;76.60;;;;;;5450518;26;20026;-60
2024/04/13 07:04:44;;;;;;;9.52;2.47;;;17.50;74.80;;;;;;5450619;26;20023;-60
2024/04/13 07:07:11;;;;;;;10.88;2.65;;;17.60;67.90;;;;;;5447743;26;20746;-60
2024/04/13 07:09:38;;;;;;;9.63;2.25;;;17.70;65.70;;;;;;5449549;26;20035;-60
2024/04/13 07:12:05;;;;;;;12.90;2.67;;;17.70;62.60;;;;;;5450292;26;20022;-60
2024/04/13 07:14:33;;;;;;;10.13;2.65;;;17.70;62.80;;;;;;5450056;26;20019;-60
2024/04/13 07:17:01;;;;;;;11.32;2.45;;;17.80;59.90;;;;;;5442768;26;20739;-60
2024/04/13 07:19:28;;;;;;;8.10;2.40;;;17.80;57.90;;;;;;5440979;26;20035;-59
2024/04/13 07:21:55;;;;;;;10.88;2.38;;;18.00;57.00;;;;;;5450182;26;20023;-59
2024/04/13 07:24:22;;;;;;;8.52;2.45;;;18.30;59.10;;;;;;5449583;26;20035;-60
2024/04/13 07:26:49;;;;;;;8.98;2.30;;;18.50;55.50;;;;;;5449398;26;20026;-60
2024/04/13 07:29:16;;;;;;;9.38;2.22;;;18.70;52.50;;;;;;5446066;26;20023;-61
2024/04/13 07:31:42;;;;;;;10.77;2.72;;;18.90;51.60;;;;;;5450219;26;20026;-60
2024/04/13 07:34:09;;;;;;;10.98;2.42;;;19.20;49.30;;;;;;5450083;26;20466;-59
2024/04/13 07:36:36;;;;;;;11.00;2.65;;;19.60;18.80;;;;;;5449791;26;20035;-60
2024/04/13 07:39:03;;;;;;;8.77;2.65;;;20.00;23.70;;;;;;5449534;26;20030;-62
2024/04/13 07:41:30;;;;;;;11.07;2.85;;;20.40;2.50;;;;;;5449028;26;20042;-60
2024/04/13 07:43:56;;;;;;;12.98;2.90;;;20.70;1.00;;;;;;5450435;26;20031;-60
2024/04/13 07:46:24;;;;;;;8.88;2.50;;;20.80;1.00;;;;;;5449866;26;20027;-60
2024/04/13 07:48:51;;;;;;;8.20;2.60;;;21.10;1.00;;;;;;5438611;26;20052;-60
2024/04/13 07:51:20;;;;;;;8.55;2.30;;;21.20;1.00;;;;;;5449592;26;20027;-60
2024/04/13 07:53:47;;;;;;;12.02;2.65;;;21.00;99.90;;;;;;5449727;26;20418;-60
2024/04/13 07:56:14;;;;;;;10.10;2.50;;;21.00;1.00;;;;;;5448564;26;20027;-59
2024/04/13 07:58:41;;;;;;;7.95;2.70;;;21.30;1.00;;;;;;5439974;26;20031;-60
2024/04/13 08:01:08;;;;;;;8.38;2.22;;;21.80;1.00;;;;;;5437072;26;19995;-60
2024/04/13 08:03:35;;;;;;;7.82;2.13;;;22.40;99.90;;;;;;5416302;26;20032;-60
2024/04/13 08:06:07;;;;;;;9.45;2.45;;;23.30;92.50;;;;;;5448234;26;20038;-60
2024/04/13 08:08:34;;;;;;;6.57;2.03;;;23.90;99.90;;;;;;5445535;26;20604;-60
2024/04/13 08:11:02;;;;;;;8.45;2.40;;;24.10;71.30;;;;;;5446847;26;20031;-60
2024/04/13 08:13:28;;;;;;;5.80;1.92;;;24.20;99.90;;;;;;5449950;26;20035;-61
2024/04/13 08:15:56;;;;;;;9.05;2.10;;;24.50;99.90;;;;;;5448911;26;20462;-60
2024/04/13 08:18:23;;;;;;;10.13;2.58;;;24.10;99.90;;;;;;5449929;26;20035;-60
2024/04/13 08:20:50;;;;;;;7.07;2.10;;;23.60;99.90;;;;;;5447397;26;20046;-60
2024/04/13 08:23:16;;;;;;;10.05;2.35;;;23.40;99.90;;;;;;5445526;26;20022;-60
2024/04/13 08:25:43;;;;;;;9.90;2.40;;;22.80;99.90;;;;;;5442200;26;20026;-60
2024/04/13 08:28:12;;;;;;;7.22;2.35;;;22.50;1.00;;;;;;5442173;26;20687;-60
2024/04/13 08:30:38;;;;;;;8.43;2.40;;;22.10;99.90;;;;;;5449118;26;20039;-60
2024/04/13 08:33:05;;;;;;;9.02;2.17;;;22.20;1.00;;;;;;5447138;26;20031;-60
2024/04/13 08:35:32;;;;;;;6.90;2.10;;;22.00;84.40;;;;;;5449226;26;20047;-60
2024/04/13 08:37:59;;;;;;;8.30;2.13;;;22.20;99.90;;;;;;5449060;26;20466;-60
2024/04/13 08:40:26;;;;;;;8.88;2.28;;;22.30;99.90;;;;;;5447153;26;20023;-60
2024/04/13 08:42:53;;;;;;;9.57;2.38;;;22.60;1.00;;;;;;5448338;26;20027;-60
2024/04/13 08:45:22;;;;;;;11.27;2.13;;;22.80;99.90;;;;;;5448559;26;20031;-60
2024/04/13 08:47:51;;;;;;;11.32;2.45;;;22.60;99.90;;;;;;5444802;26;20026;-60
2024/04/13 08:50:19;;;;;;;9.05;2.15;;;22.50;1.00;;;;;;5448453;26;20027;-60
2024/04/13 08:52:46;;;;;;;9.18;2.40;;;22.50;99.90;;;;;;5449135;26;20022;-60
2024/04/13 08:55:13;;;;;;;8.10;2.17;;;22.40;15.40;;;;;;5447775;26;20039;-60
2024/04/13 08:57:41;;;;;;;10.52;2.38;;;22.60;1.00;;;;;;5446383;26;20027;-60
2024/04/13 09:00:14;;;;;;;6.68;2.17;;;22.70;99.90;;;;;;5438208;26;20031;-60
2024/04/13 09:02:44;;;;;;;8.05;2.03;;;23.00;1.00;;;;;;5432876;26;20518;-60
2024/04/13 09:05:12;;;;;;;7.65;2.20;;;23.00;7.40;;;;;;5448568;26;20023;-60
2024/04/13 09:07:40;;;;;;;8.90;1.90;;;23.10;1.00;;;;;;5446647;26;20034;-60
2024/04/13 09:10:09;;;;;;;7.03;2.30;;;23.00;99.90;;;;;;5445628;26;19999;-60
2024/04/13 09:12:36;;;;;;;7.65;2.45;;;23.10;1.00;;;;;;5448194;26;20030;-61
2024/04/13 09:15:04;;;;;;;9.05;2.20;;;23.00;1.00;;;;;;5418967;26;20554;-60
2024/04/13 09:17:32;;;;;;;7.00;1.80;;;23.20;99.90;;;;;;5415195;26;20039;-60
2024/04/13 09:20:07;;;;;;;7.03;2.10;;;23.10;1.00;;;;;;5422597;26;20023;-60
2024/04/13 09:22:34;;;;;;;;;;;23.30;1.00;;;;;;5449065;26;20035;-61
2024/04/13 09:25:02;;;;;;;7.03;1.95;;;23.20;92.50;;;;;;5447091;26;20399;-60
2024/04/13 09:27:30;;;;;;;8.43;2.08;;;23.40;1.00;;;;;;5447634;26;20499;-60
2024/04/13 09:30:10;;;;;;;6.55;1.88;;;23.60;99.90;;;;;;5447480;26;20027;-60
2024/04/13 09:32:37;;;;;;;7.78;2.00;;;24.00;95.60;;;;;;5436773;26;20027;-61
2024/04/13 09:35:11;;;;;;;7.20;2.00;;;24.40;99.90;;;;;;5428188;26;20026;-61
2024/04/13 09:37:38;;;;;;;5.83;1.93;;;24.90;1.00;;;;;;5431984;26;20023;-60
2024/04/13 09:40:06;;;;;;;5.30;2.05;;;25.40;1.00;;;;;;5431819;26;20027;-60
2024/04/13 09:42:33;;;;;;;8.18;2.30;;;25.80;99.90;;;;;;5431792;26;20015;-61
2024/04/13 09:45:07;;;;;;;5.82;2.42;;;26.40;1.00;;;;;;5448131;26;20363;-60
2024/04/13 09:47:34;;;;;;;8.52;2.53;;;26.50;99.90;;;;;;5438893;26;20030;-61
2024/04/13 09:50:01;;;;;;;7.18;2.40;;;26.70;1.00;;;;;;5427221;26;20030;-60
2024/04/13 09:52:28;;;;;;;6.07;2.03;;;26.80;1.00;;;;;;5435532;26;20365;-60
2024/04/13 09:54:56;;;;;;;6.05;2.15;;;26.60;1.00;;;;;;5434477;26;20039;-60
2024/04/13 09:57:23;;;;;;;4.90;1.98;;;26.30;1.00;;;;;;5446637;26;20023;-61
2024/04/13 09:59:51;;;;;;;7.72;2.50;;;26.10;1.00;;;;;;5445152;26;20031;-60
2024/04/13 10:02:18;;;;;;;10.07;2.25;;;26.00;1.00;;;;;;5447168;26;20494;-60
2024/04/13 10:04:46;;;;;;;5.95;2.42;;;25.70;1.00;;;;;;5445761;26;20478;-60
2024/04/13 10:07:25;;;;;;;7.22;2.33;;;25.40;1.00;;;;;;5445495;26;20035;-60
2024/04/13 10:09:58;;;;;;;6.95;2.40;;;25.20;99.90;;;;;;5446223;26;20030;-60
2024/04/13 10:12:31;;;;;;;6.75;2.28;;;25.00;99.90;;;;;;5447470;26;20039;-60
2024/04/13 10:15:00;;;;;;;7.18;2.10;;;25.10;1.00;;;;;;5449715;26;20027;-60
2024/04/13 10:17:28;;;;;;;5.97;1.88;;;25.10;16.30;;;;;;5447553;26;20035;-60
2024/04/13 10:19:56;;;;;;;4.57;1.92;;;25.10;99.90;;;;;;5446600;26;20022;-59
2024/04/13 10:22:23;;;;;;;5.15;2.30;;;25.00;99.90;;;;;;5447017;26;20042;-60
2024/04/13 10:24:51;;;;;;;7.45;2.30;;;24.80;99.90;;;;;;5446660;26;20031;-60
2024/04/13 10:27:22;;;;;;;6.97;2.00;;;24.70;99.90;;;;;;5447579;26;20035;-60
2024/04/13 10:29:51;;;;;;;5.20;1.95;;;24.40;99.90;;;;;;5446602;26;20495;-60
2024/04/13 10:32:22;;;;;;;7.70;2.28;;;24.00;1.00;;;;;;5447603;26;20030;-60
2024/04/13 10:34:49;;;;;;;7.78;2.10;;;23.70;99.90;;;;;;5446736;26;20035;-60
2024/04/13 10:37:26;;;;;;;6.45;2.22;;;23.50;99.90;;;;;;5447803;26;20023;-59
2024/04/13 10:39:57;;;;;;;6.93;2.40;;;23.30;1.00;;;;;;5446094;26;20386;-61
2024/04/13 10:42:38;;;;;;;6.40;2.22;;;23.00;1.00;;;;;;5446680;26;20039;-60
2024/04/13 10:45:09;;;;;;;6.80;1.95;;;23.00;1.00;;;;;;5445179;26;20040;-59
2024/04/13 10:47:39;;;;;;;3.83;2.10;;;22.90;1.00;;;;;;5445643;26;20038;-60
2024/04/13 10:50:14;;;;;;;7.68;2.55;;;22.80;88.60;;;;;;5433293;26;20036;-59
2024/04/13 10:52:42;;;;;;;6.85;2.58;;;22.70;99.90;;;;;;5440526;26;20486;-60
2024/04/13 10:55:17;;;;;;;6.13;2.80;;;22.70;99.90;;;;;;5432023;26;20479;-60
2024/04/13 10:57:47;;;;;;;6.20;3.00;;;22.50;1.00;;;;;;5436084;26;20030;-60
2024/04/13 11:00:15;;;;;;;6.72;3.03;;;22.40;82.50;;;;;;5437318;26;20038;-61
2024/04/13 11:02:41;;;;;;;5.43;2.83;;;22.40;1.00;;;;;;5446778;26;20031;-60
2024/04/13 11:05:16;;;;;;;6.93;3.00;;;22.60;1.00;;;;;;5448340;26;20026;-60
2024/04/13 11:07:43;;;;;;;11.20;2.92;;;22.70;1.00;;;;;;5450617;26;20031;-60
2024/04/13 11:10:10;;;;;;;9.85;3.05;;;22.80;1.00;;;;;;5449479;26;20366;-61
2024/04/13 11:12:37;;;;;;;8.23;2.95;;;23.00;99.90;;;;;;5449805;26;20371;-60
2024/04/13 11:15:07;;;;;;;7.32;3.28;;;23.20;99.90;;;;;;5450389;26;20039;-61
2024/04/13 11:17:34;;;;;;;6.13;3.33;;;23.40;1.00;;;;;;5450397;26;20027;-60
2024/04/13 11:20:02;;;;;;;6.45;3.03;;;23.40;99.90;;;;;;5450603;26;20414;-60
2024/04/13 11:22:29;;;;;;;8.73;3.30;;;23.40;99.90;;;;;;5447932;26;20039;-62
2024/04/13 11:25:05;;;;;;;7.63;3.15;;;23.60;99.90;;;;;;5448094;26;20030;-60
2024/04/13 11:27:32;;;;;;;7.72;3.33;;;23.80;96.50;;;;;;5449757;26;20031;-60
2024/04/13 11:29:59;;;;;;;8.15;3.17;;;23.80;72.30;;;;;;5449606;26;20034;-61
2024/04/13 11:32:26;;;;;;;5.35;2.88;;;23.90;26.80;;;;;;5450541;26;20027;-59
2024/04/13 11:34:54;;;;;;;6.97;3.33;;;23.80;1.00;;;;;;5449686;26;20043;-60
2024/04/13 11:37:20;;;;;;;6.25;3.47;;;23.70;99.90;;;;;;5450465;26;20023;-60
2024/04/13 11:39:47;;;;;;;5.75;3.13;;;23.70;1.00;;;;;;5449207;26;20031;-60
2024/04/13 11:42:14;;;;;;;7.32;3.05;;;23.70;1.00;;;;;;5449846;26;20031;-60
2024/04/13 11:44:49;;;;;;;7.25;3.13;;;23.70;48.50;;;;;;5450004;26;20023;-61
2024/04/13 11:47:16;;;;;;;6.20;3.20;;;23.70;1.00;;;;;;5450659;26;20114;-60
2024/04/13 11:49:43;;;;;;;9.00;3.28;;;23.70;1.00;;;;;;5449461;26;20026;-59
2024/04/13 11:52:11;;;;;;;7.25;3.10;;;23.70;99.90;;;;;;5449657;26;20369;-60
2024/04/13 11:54:39;;;;;;;7.47;3.08;;;23.70;99.90;;;;;;5449174;26;20038;-59
2024/04/13 11:57:11;;;;;;;6.85;2.72;;;23.60;99.90;;;;;;5449409;26;20036;-60
2024/04/13 11:59:37;;;;;;;7.32;2.97;;;23.60;99.90;;;;;;5449535;26;20027;-60
2024/04/13 12:02:05;;;;;;;7.90;3.13;;;23.60;99.90;;;;;;5449856;26;20501;-59
2024/04/13 12:04:30;;;;;;;8.52;2.67;;;23.70;93.50;;;;;;5442631;26;20004;-60
2024/04/13 12:06:56;;;;;;;8.63;3.20;;;23.80;99.90;;;;;;5439150;26;20017;-60
2024/04/13 12:09:22;;;;;;;6.00;3.00;;;23.90;42.50;;;;;;5449100;26;20002;-59
2024/04/13 12:11:48;;;;;;;7.10;3.13;;;23.90;1.00;;;;;;5442225;26;20003;-60
2024/04/13 12:14:14;;;;;;;7.95;3.30;;;23.90;99.90;;;;;;5439253;26;20003;-60
2024/04/13 12:16:41;;;;;;;7.15;2.90;;;23.90;1.00;;;;;;5425207;26;20002;-60
2024/04/13 12:19:06;;;;;;;9.13;3.85;;;23.70;1.00;;;;;;5446168;26;20006;-60
2024/04/13 12:21:33;;;;;;;8.65;3.83;;;23.50;99.90;;;;;;5446386;26;20054;-60
2024/04/13 12:23:59;;;;;;;8.13;3.53;;;23.50;99.90;;;;;;5449288;26;20655;-60
2024/04/13 12:26:25;;;;;;;7.55;3.72;;;23.60;99.90;;;;;;5447664;26;20003;-61
2024/04/13 12:28:51;;;;;;;8.82;3.97;;;23.70;99.90;;;;;;5448739;26;20080;-61
2024/04/13 12:31:17;;;;;;;7.38;2.95;;;23.80;99.90;;;;;;5448693;26;20017;-60
2024/04/13 12:33:42;;;;;;;7.50;4.00;;;23.80;99.90;;;;;;5448816;26;20007;-59
2024/04/13 12:36:11;;;;;;;8.45;3.92;;;23.70;1.00;;;;;;5446811;26;19999;-60
2024/04/13 12:38:37;;;;;;;7.20;3.60;;;23.60;21.60;;;;;;5427127;26;20018;-60
2024/04/13 12:41:05;;;;;;;8.10;4.00;;;23.40;1.00;;;;;;5440038;26;20007;-61
2024/04/13 12:43:31;;;;;;;9.68;3.88;;;23.30;1.00;;;;;;5442987;26;20003;-60
2024/04/13 12:45:57;;;;;;;8.43;3.72;;;23.10;1.00;;;;;;5448520;26;20013;-61
2024/04/13 12:48:23;;;;;;;7.22;4.22;;;23.20;13.80;;;;;;5448167;26;20068;-59